sensor_id;sensor_type;location;lat;lon;timestamp;pressure;altitude;pressure_sealevel;temperature;humidity
19860;BME280;2395;50.738;7.122;2022-09-17T00:01:29;100763.66;;;11.11;83.92
19860;BME280;2395;50.738;7.122;2022-09-17T00:03:59;100774.56;;;11.16;85.37
19860;BME280;2395;50.738;7.122;2022-09-17T00:06:30;100765.44;;;11.09;84.99
19860;BME280;2395;50.738;7.122;2022-09-17T00:08:57;100768.88;;;11.08;85.26
19860;BME280;2395;50.738;7.122;2022-09-17T00:11:27;100760.16;;;11.12;85.26
19860;BME280;2395;50.738;7.122;2022-09-17T00:13:57;100760.13;;;11.13;85.08
19860;BME280;2395;50.738;7.122;2022-09-17T00:16:28;100762.63;;;11.15;84.69
19860;BME280;2395;50.738;7.122;2022-09-17T00:18:57;100770.44;;;11.12;85.62
19860;BME280;2395;50.738;7.122;2022-09-17T00:21:25;100765.13;;;11.16;85.44
19860;BME280;2395;50.738;7.122;2022-09-17T00:23:54;100770.50;;;11.10;84.58
19860;BME280;2395;50.738;7.122;2022-09-17T00:26:22;100761.81;;;11.14;85.02
19860;BME280;2395;50.738;7.122;2022-09-17T00:28:51;100767.50;;;11.21;84.88
19860;BME280;2395;50.738;7.122;2022-09-17T00:31:18;100767.50;;;11.21;84.78
19860;BME280;2395;50.738;7.122;2022-09-17T00:33:48;100771.84;;;11.20;85.06
19860;BME280;2395;50.738;7.122;2022-09-17T00:36:15;100762.28;;;11.24;85.00
19860;BME280;2395;50.738;7.122;2022-09-17T00:38:42;100767.22;;;11.30;84.46
19860;BME280;2395;50.738;7.122;2022-09-17T00:41:09;100769.81;;;11.28;85.41
19860;BME280;2395;50.738;7.122;2022-09-17T00:43:40;100769.63;;;11.33;85.47
19860;BME280;2395;50.738;7.122;2022-09-17T00:46:24;100762.16;;;11.27;85.46
19860;BME280;2395;50.738;7.122;2022-09-17T00:48:57;100771.66;;;11.25;85.29
19860;BME280;2395;50.738;7.122;2022-09-17T00:51:33;100763.00;;;11.27;85.41
19860;BME280;2395;50.738;7.122;2022-09-17T00:54:04;100774.94;;;11.28;86.54
19860;BME280;2395;50.738;7.122;2022-09-17T00:56:34;100764.50;;;11.33;85.11
19860;BME280;2395;50.738;7.122;2022-09-17T00:59:02;100770.31;;;11.38;85.74
19860;BME280;2395;50.738;7.122;2022-09-17T01:01:30;100768.75;;;11.34;84.89
19860;BME280;2395;50.738;7.122;2022-09-17T01:03:59;100772.16;;;11.34;85.45
19860;BME280;2395;50.738;7.122;2022-09-17T01:06:34;100767.75;;;11.38;85.14
19860;BME280;2395;50.738;7.122;2022-09-17T01:09:20;100767.97;;;11.32;84.92
19860;BME280;2395;50.738;7.122;2022-09-17T01:12:17;100770.31;;;11.38;85.26
19860;BME280;2395;50.738;7.122;2022-09-17T01:15:01;100769.63;;;11.33;85.48
19860;BME280;2395;50.738;7.122;2022-09-17T01:17:42;100774.00;;;11.31;86.59
19860;BME280;2395;50.738;7.122;2022-09-17T01:20:49;100777.88;;;11.41;85.88
19860;BME280;2395;50.738;7.122;2022-09-17T01:24:00;100769.28;;;11.42;86.59
19860;BME280;2395;50.738;7.122;2022-09-17T01:27:20;100766.84;;;11.39;86.74
19860;BME280;2395;50.738;7.122;2022-09-17T01:30:15;100774.56;;;11.39;87.03
19860;BME280;2395;50.738;7.122;2022-09-17T01:32:51;100779.63;;;11.40;86.49
19860;BME280;2395;50.738;7.122;2022-09-17T01:35:32;100780.53;;;11.39;86.57
19860;BME280;2395;50.738;7.122;2022-09-17T01:38:12;100768.63;;;11.37;86.61
19860;BME280;2395;50.738;7.122;2022-09-17T01:40:49;100770.19;;;11.41;87.22
19860;BME280;2395;50.738;7.122;2022-09-17T01:43:25;100772.53;;;11.47;86.52
19860;BME280;2395;50.738;7.122;2022-09-17T01:46:02;100773.50;;;11.44;85.79
19860;BME280;2395;50.738;7.122;2022-09-17T01:48:39;100781.25;;;11.43;86.05
19860;BME280;2395;50.738;7.122;2022-09-17T01:51:13;100775.22;;;11.44;87.24
19860;BME280;2395;50.738;7.122;2022-09-17T01:53:50;100772.59;;;11.45;86.11
19860;BME280;2395;50.738;7.122;2022-09-17T01:56:21;100779.28;;;11.49;86.32
19860;BME280;2395;50.738;7.122;2022-09-17T01:58:57;100780.88;;;11.52;86.06
19860;BME280;2395;50.738;7.122;2022-09-17T02:01:28;100783.47;;;11.53;85.73
19860;BME280;2395;50.738;7.122;2022-09-17T02:04:03;100784.50;;;11.48;86.25
19860;BME280;2395;50.738;7.122;2022-09-17T02:06:39;100780.88;;;11.52;86.62
19860;BME280;2395;50.738;7.122;2022-09-17T02:09:13;100781.03;;;11.49;85.90
19860;BME280;2395;50.738;7.122;2022-09-17T02:11:50;100787.09;;;11.46;85.81
19860;BME280;2395;50.738;7.122;2022-09-17T02:14:21;100790.63;;;11.44;86.28
19860;BME280;2395;50.738;7.122;2022-09-17T02:16:55;100791.34;;;11.47;85.65
19860;BME280;2395;50.738;7.122;2022-09-17T02:19:29;100795.75;;;11.44;86.52
19860;BME280;2395;50.738;7.122;2022-09-17T02:22:05;100795.94;;;11.39;86.39
19860;BME280;2395;50.738;7.122;2022-09-17T02:24:42;100797.69;;;11.39;87.91
19860;BME280;2395;50.738;7.122;2022-09-17T02:27:21;100804.59;;;11.37;86.65
19860;BME280;2395;50.738;7.122;2022-09-17T02:29:49;100795.88;;;11.41;86.38
19860;BME280;2395;50.738;7.122;2022-09-17T02:32:16;100801.16;;;11.38;86.54
19860;BME280;2395;50.738;7.122;2022-09-17T02:34:45;100790.19;;;11.33;86.95
19860;BME280;2395;50.738;7.122;2022-09-17T02:37:12;100799.53;;;11.35;87.23
19860;BME280;2395;50.738;7.122;2022-09-17T02:39:40;100790.72;;;11.41;87.50
19860;BME280;2395;50.738;7.122;2022-09-17T02:42:19;100803.88;;;11.33;87.00
19860;BME280;2395;50.738;7.122;2022-09-17T02:44:58;100803.19;;;11.28;87.54
19860;BME280;2395;50.738;7.122;2022-09-17T02:47:45;100796.44;;;11.26;88.56
19860;BME280;2395;50.738;7.122;2022-09-17T02:50:45;100809.38;;;11.24;88.68
19860;BME280;2395;50.738;7.122;2022-09-17T02:53:33;100805.06;;;11.25;88.83
19860;BME280;2395;50.738;7.122;2022-09-17T02:56:12;100793.94;;;11.24;88.50
19860;BME280;2395;50.738;7.122;2022-09-17T02:58:50;100799.03;;;11.26;88.10
19860;BME280;2395;50.738;7.122;2022-09-17T03:01:28;100806.84;;;11.23;88.01
19860;BME280;2395;50.738;7.122;2022-09-17T03:04:01;100807.63;;;11.25;89.23
19860;BME280;2395;50.738;7.122;2022-09-17T03:06:30;100803.59;;;11.18;89.05
19860;BME280;2395;50.738;7.122;2022-09-17T03:08:57;100804.25;;;11.23;88.95
19860;BME280;2395;50.738;7.122;2022-09-17T03:11:25;100807.78;;;11.20;88.28
19860;BME280;2395;50.738;7.122;2022-09-17T03:13:52;100807.50;;;11.28;89.46
19860;BME280;2395;50.738;7.122;2022-09-17T03:16:19;100809.19;;;11.29;88.46
19860;BME280;2395;50.738;7.122;2022-09-17T03:18:46;100812.47;;;11.32;88.22
19860;BME280;2395;50.738;7.122;2022-09-17T03:21:13;100809.84;;;11.34;88.60
19860;BME280;2395;50.738;7.122;2022-09-17T03:23:41;100801.16;;;11.38;88.63
19860;BME280;2395;50.738;7.122;2022-09-17T03:26:08;100803.66;;;11.39;88.35
19860;BME280;2395;50.738;7.122;2022-09-17T03:28:35;100809.75;;;11.37;88.38
19860;BME280;2395;50.738;7.122;2022-09-17T03:31:01;100808.25;;;11.31;89.66
19860;BME280;2395;50.738;7.122;2022-09-17T03:33:30;100809.19;;;11.29;88.90
19860;BME280;2395;50.738;7.122;2022-09-17T03:35:57;100802.22;;;11.32;89.96
19860;BME280;2395;50.738;7.122;2022-09-17T03:38:24;100800.63;;;11.28;89.28
19860;BME280;2395;50.738;7.122;2022-09-17T03:41:00;100809.06;;;11.32;89.11
19860;BME280;2395;50.738;7.122;2022-09-17T03:43:27;100804.09;;;11.27;90.42
19860;BME280;2395;50.738;7.122;2022-09-17T03:45:54;100802.13;;;11.34;90.27
19860;BME280;2395;50.738;7.122;2022-09-17T03:48:22;100811.53;;;11.35;90.08
19860;BME280;2395;50.738;7.122;2022-09-17T03:50:49;100816.56;;;11.38;88.92
19860;BME280;2395;50.738;7.122;2022-09-17T03:53:16;100818.78;;;11.47;89.69
19860;BME280;2395;50.738;7.122;2022-09-17T03:55:44;100820.66;;;11.42;88.48
19860;BME280;2395;50.738;7.122;2022-09-17T03:58:12;100827.44;;;11.44;87.72
19860;BME280;2395;50.738;7.122;2022-09-17T04:00:39;100819.78;;;11.43;89.34
19860;BME280;2395;50.738;7.122;2022-09-17T04:03:07;100821.56;;;11.41;89.34
19860;BME280;2395;50.738;7.122;2022-09-17T04:05:34;100824.19;;;11.39;89.23
19860;BME280;2395;50.738;7.122;2022-09-17T04:08:01;100836.84;;;11.45;89.50
19860;BME280;2395;50.738;7.122;2022-09-17T04:10:28;100829.97;;;11.46;88.17
19860;BME280;2395;50.738;7.122;2022-09-17T04:12:55;100825.63;;;11.46;87.99
19860;BME280;2395;50.738;7.122;2022-09-17T04:15:23;100830.91;;;11.43;89.62
19860;BME280;2395;50.738;7.122;2022-09-17T04:17:54;100822.91;;;11.51;88.58
19860;BME280;2395;50.738;7.122;2022-09-17T04:20:22;100827.31;;;11.47;87.94
19860;BME280;2395;50.738;7.122;2022-09-17T04:22:49;100827.06;;;11.55;89.05
19860;BME280;2395;50.738;7.122;2022-09-17T04:25:17;100824.56;;;11.52;88.40
19860;BME280;2395;50.738;7.122;2022-09-17T04:27:44;100828.19;;;11.48;89.00
19860;BME280;2395;50.738;7.122;2022-09-17T04:30:12;100829.72;;;11.52;89.46
19860;BME280;2395;50.738;7.122;2022-09-17T04:32:43;100825.41;;;11.54;88.39
19860;BME280;2395;50.738;7.122;2022-09-17T04:35:10;100831.22;;;11.59;87.55
19860;BME280;2395;50.738;7.122;2022-09-17T04:37:37;100821.16;;;11.53;88.51
19860;BME280;2395;50.738;7.122;2022-09-17T04:40:06;100838.31;;;11.51;88.18
19860;BME280;2395;50.738;7.122;2022-09-17T04:42:33;100840.00;;;11.53;87.75
19860;BME280;2395;50.738;7.122;2022-09-17T04:45:00;100835.81;;;11.49;87.88
19860;BME280;2395;50.738;7.122;2022-09-17T04:47:27;100835.91;;;11.46;88.66
19860;BME280;2395;50.738;7.122;2022-09-17T04:49:55;100838.31;;;11.51;88.34
19860;BME280;2395;50.738;7.122;2022-09-17T04:52:22;100840.88;;;11.52;87.56
19860;BME280;2395;50.738;7.122;2022-09-17T04:54:49;100846.94;;;11.50;88.89
19860;BME280;2395;50.738;7.122;2022-09-17T04:57:16;100836.78;;;11.47;87.24
19860;BME280;2395;50.738;7.122;2022-09-17T04:59:43;100846.25;;;11.45;87.97
19860;BME280;2395;50.738;7.122;2022-09-17T05:02:10;100849.50;;;11.50;87.68
19860;BME280;2395;50.738;7.122;2022-09-17T05:04:36;100844.31;;;11.51;87.73
19860;BME280;2395;50.738;7.122;2022-09-17T05:07:05;100852.13;;;11.48;87.63
19860;BME280;2395;50.738;7.122;2022-09-17T05:09:32;100849.63;;;11.47;88.73
19860;BME280;2395;50.738;7.122;2022-09-17T05:11:58;100859.72;;;11.51;88.19
19860;BME280;2395;50.738;7.122;2022-09-17T05:14:25;100857.22;;;11.50;88.81
19860;BME280;2395;50.738;7.122;2022-09-17T05:16:52;100860.63;;;11.50;88.06
19860;BME280;2395;50.738;7.122;2022-09-17T05:19:19;100864.88;;;11.51;88.06
19860;BME280;2395;50.738;7.122;2022-09-17T05:21:46;100850.69;;;11.41;88.88
19860;BME280;2395;50.738;7.122;2022-09-17T05:24:14;100868.31;;;11.50;88.71
19860;BME280;2395;50.738;7.122;2022-09-17T05:26:41;100858.94;;;11.49;89.09
19860;BME280;2395;50.738;7.122;2022-09-17T05:29:08;100857.97;;;11.52;88.26
19860;BME280;2395;50.738;7.122;2022-09-17T05:31:35;100857.16;;;11.51;88.54
19860;BME280;2395;50.738;7.122;2022-09-17T05:34:02;100862.28;;;11.51;87.55
19860;BME280;2395;50.738;7.122;2022-09-17T05:36:29;100860.78;;;11.46;88.70
19860;BME280;2395;50.738;7.122;2022-09-17T05:38:56;100861.03;;;11.63;87.52
19860;BME280;2395;50.738;7.122;2022-09-17T05:41:25;100872.19;;;11.62;88.20
19860;BME280;2395;50.738;7.122;2022-09-17T05:43:51;100872.44;;;11.56;86.92
19860;BME280;2395;50.738;7.122;2022-09-17T05:46:18;100869.75;;;11.59;87.70
19860;BME280;2395;50.738;7.122;2022-09-17T05:48:45;100875.28;;;11.71;86.80
19860;BME280;2395;50.738;7.122;2022-09-17T05:51:12;100880.31;;;11.74;87.09
19860;BME280;2395;50.738;7.122;2022-09-17T05:53:39;100877.06;;;11.69;86.66
19860;BME280;2395;50.738;7.122;2022-09-17T05:56:07;100881.75;;;11.81;86.32
19860;BME280;2395;50.738;7.122;2022-09-17T05:58:35;100884.44;;;11.78;87.11
19860;BME280;2395;50.738;7.122;2022-09-17T06:01:02;100889.56;;;11.78;86.65
19860;BME280;2395;50.738;7.122;2022-09-17T06:03:29;100895.25;;;11.86;85.45
19860;BME280;2395;50.738;7.122;2022-09-17T06:05:58;100886.00;;;11.82;85.02
19860;BME280;2395;50.738;7.122;2022-09-17T06:08:27;100893.66;;;11.84;85.71
19860;BME280;2395;50.738;7.122;2022-09-17T06:10:55;100885.69;;;11.90;85.10
19860;BME280;2395;50.738;7.122;2022-09-17T06:13:22;100901.00;;;11.93;84.62
19860;BME280;2395;50.738;7.122;2022-09-17T06:15:51;100899.88;;;11.99;85.27
19860;BME280;2395;50.738;7.122;2022-09-17T06:18:19;100906.22;;;12.12;85.08
19860;BME280;2395;50.738;7.122;2022-09-17T06:20:52;100912.16;;;12.14;83.98
19860;BME280;2395;50.738;7.122;2022-09-17T06:23:20;100906.94;;;12.16;83.61
19860;BME280;2395;50.738;7.122;2022-09-17T06:25:54;100916.69;;;12.29;83.23
19860;BME280;2395;50.738;7.122;2022-09-17T06:28:22;100916.50;;;12.34;82.14
19860;BME280;2395;50.738;7.122;2022-09-17T06:30:51;100920.06;;;12.31;83.95
19860;BME280;2395;50.738;7.122;2022-09-17T06:33:19;100922.16;;;12.43;82.73
19860;BME280;2395;50.738;7.122;2022-09-17T06:35:46;100921.16;;;12.47;82.45
19860;BME280;2395;50.738;7.122;2022-09-17T06:38:13;100918.88;;;12.40;81.69
19860;BME280;2395;50.738;7.122;2022-09-17T06:40:40;100917.53;;;12.51;81.35
19860;BME280;2395;50.738;7.122;2022-09-17T06:43:07;100915.38;;;12.62;82.25
19860;BME280;2395;50.738;7.122;2022-09-17T06:45:35;100914.94;;;12.73;80.72
19860;BME280;2395;50.738;7.122;2022-09-17T06:48:05;100916.38;;;12.79;81.49
19860;BME280;2395;50.738;7.122;2022-09-17T06:50:32;100912.63;;;12.86;79.90
19860;BME280;2395;50.738;7.122;2022-09-17T06:52:59;100910.34;;;13.00;79.75
19860;BME280;2395;50.738;7.122;2022-09-17T06:55:26;100915.53;;;13.19;79.51
19860;BME280;2395;50.738;7.122;2022-09-17T06:57:53;100919.28;;;13.32;78.44
19860;BME280;2395;50.738;7.122;2022-09-17T07:00:24;100914.00;;;13.35;77.00
19860;BME280;2395;50.738;7.122;2022-09-17T07:02:55;100917.53;;;13.32;76.61
19860;BME280;2395;50.738;7.122;2022-09-17T07:05:25;100914.44;;;13.44;76.73
19860;BME280;2395;50.738;7.122;2022-09-17T07:07:53;100913.59;;;13.44;76.36
19860;BME280;2395;50.738;7.122;2022-09-17T07:10:22;100915.41;;;13.42;76.58
19860;BME280;2395;50.738;7.122;2022-09-17T07:12:49;100918.50;;;13.30;77.17
19860;BME280;2395;50.738;7.122;2022-09-17T07:15:15;100914.84;;;13.15;77.63
19860;BME280;2395;50.738;7.122;2022-09-17T07:17:42;100920.59;;;13.22;76.95
19860;BME280;2395;50.738;7.122;2022-09-17T07:20:11;100938.34;;;13.08;76.05
19860;BME280;2395;50.738;7.122;2022-09-17T07:22:39;100922.84;;;13.09;76.54
19860;BME280;2395;50.738;7.122;2022-09-17T07:25:07;100934.88;;;13.09;75.69
19860;BME280;2395;50.738;7.122;2022-09-17T07:27:34;100949.94;;;12.98;76.15
19860;BME280;2395;50.738;7.122;2022-09-17T07:30:02;100937.06;;;12.98;75.94
19860;BME280;2395;50.738;7.122;2022-09-17T07:32:30;100935.72;;;13.09;75.54
19860;BME280;2395;50.738;7.122;2022-09-17T07:34:57;100945.13;;;13.10;74.34
19860;BME280;2395;50.738;7.122;2022-09-17T07:37:24;100941.72;;;13.10;74.88
19860;BME280;2395;50.738;7.122;2022-09-17T07:39:52;100939.00;;;12.93;76.84
19860;BME280;2395;50.738;7.122;2022-09-17T07:42:19;100934.63;;;12.95;77.62
19860;BME280;2395;50.738;7.122;2022-09-17T07:44:46;100939.22;;;12.87;76.01
19860;BME280;2395;50.738;7.122;2022-09-17T07:47:13;100944.09;;;12.94;76.95
19860;BME280;2395;50.738;7.122;2022-09-17T07:49:39;100944.66;;;13.01;78.51
19860;BME280;2395;50.738;7.122;2022-09-17T07:52:06;100947.38;;;12.98;78.79
19860;BME280;2395;50.738;7.122;2022-09-17T07:54:33;100939.41;;;13.04;77.74
19860;BME280;2395;50.738;7.122;2022-09-17T07:57:04;100944.47;;;13.05;77.71
19860;BME280;2395;50.738;7.122;2022-09-17T07:59:31;100939.97;;;12.90;78.61
19860;BME280;2395;50.738;7.122;2022-09-17T08:01:57;100940.69;;;12.94;78.67
19860;BME280;2395;50.738;7.122;2022-09-17T08:04:24;100952.28;;;13.04;77.31
19860;BME280;2395;50.738;7.122;2022-09-17T08:06:51;100940.53;;;13.17;77.54
19860;BME280;2395;50.738;7.122;2022-09-17T08:09:18;100937.53;;;13.27;76.41
19860;BME280;2395;50.738;7.122;2022-09-17T08:11:45;100942.09;;;13.41;75.36
19860;BME280;2395;50.738;7.122;2022-09-17T08:14:15;100943.38;;;13.31;75.33
19860;BME280;2395;50.738;7.122;2022-09-17T08:16:42;100938.81;;;13.37;75.35
19860;BME280;2395;50.738;7.122;2022-09-17T08:19:10;100936.91;;;13.61;75.40
19860;BME280;2395;50.738;7.122;2022-09-17T08:21:37;100937.13;;;13.74;75.44
19860;BME280;2395;50.738;7.122;2022-09-17T08:24:04;100932.38;;;13.84;74.20
19860;BME280;2395;50.738;7.122;2022-09-17T08:26:32;100947.94;;;13.82;73.40
19860;BME280;2395;50.738;7.122;2022-09-17T08:28:58;100943.19;;;13.73;74.05
19860;BME280;2395;50.738;7.122;2022-09-17T08:31:27;100951.81;;;13.72;73.62
19860;BME280;2395;50.738;7.122;2022-09-17T08:33:55;100951.22;;;13.86;73.81
19860;BME280;2395;50.738;7.122;2022-09-17T08:36:22;100946.50;;;13.75;72.29
19860;BME280;2395;50.738;7.122;2022-09-17T08:38:52;100932.00;;;14.11;71.06
19860;BME280;2395;50.738;7.122;2022-09-17T08:41:35;100950.88;;;14.12;69.67
19860;BME280;2395;50.738;7.122;2022-09-17T08:44:21;100948.91;;;14.35;70.40
19860;BME280;2395;50.738;7.122;2022-09-17T08:46:58;100934.19;;;14.37;68.78
19860;BME280;2395;50.738;7.122;2022-09-17T08:49:33;100942.78;;;14.73;69.16
19860;BME280;2395;50.738;7.122;2022-09-17T08:52:42;100933.25;;;14.73;67.20
19860;BME280;2395;50.738;7.122;2022-09-17T08:55:32;100936.91;;;14.69;66.49
19860;BME280;2395;50.738;7.122;2022-09-17T08:58:22;100949.75;;;14.71;66.31
19860;BME280;2395;50.738;7.122;2022-09-17T09:01:00;100949.09;;;14.49;67.48
19860;BME280;2395;50.738;7.122;2022-09-17T09:03:53;100945.28;;;14.74;66.40
19860;BME280;2395;50.738;7.122;2022-09-17T09:06:33;100946.53;;;14.66;66.59
19860;BME280;2395;50.738;7.122;2022-09-17T09:09:10;100931.94;;;14.65;66.58
19860;BME280;2395;50.738;7.122;2022-09-17T09:11:40;100952.91;;;14.59;65.06
19860;BME280;2395;50.738;7.122;2022-09-17T09:14:18;100946.50;;;14.67;64.77
19860;BME280;2395;50.738;7.122;2022-09-17T09:16:48;100939.50;;;14.86;65.11
19860;BME280;2395;50.738;7.122;2022-09-17T09:19:22;100940.78;;;14.78;65.14
19860;BME280;2395;50.738;7.122;2022-09-17T09:22:03;100941.09;;;14.89;64.57
19860;BME280;2395;50.738;7.122;2022-09-17T09:24:40;100932.66;;;15.02;64.32
19860;BME280;2395;50.738;7.122;2022-09-17T09:27:16;100939.13;;;15.28;63.51
19860;BME280;2395;50.738;7.122;2022-09-17T09:29:57;100934.97;;;15.57;63.54
19860;BME280;2395;50.738;7.122;2022-09-17T09:32:49;100943.50;;;15.42;62.63
19860;BME280;2395;50.738;7.122;2022-09-17T09:35:22;100931.78;;;15.52;62.19
19860;BME280;2395;50.738;7.122;2022-09-17T09:37:56;100944.31;;;15.28;62.75
19860;BME280;2395;50.738;7.122;2022-09-17T09:40:41;100939.78;;;15.48;61.58
19860;BME280;2395;50.738;7.122;2022-09-17T09:43:18;100930.44;;;15.45;61.53
19860;BME280;2395;50.738;7.122;2022-09-17T09:46:07;100944.56;;;15.55;61.37
19860;BME280;2395;50.738;7.122;2022-09-17T09:48:50;100932.53;;;15.54;61.45
19860;BME280;2395;50.738;7.122;2022-09-17T09:51:34;100935.31;;;15.35;60.89
19860;BME280;2395;50.738;7.122;2022-09-17T09:54:17;100930.91;;;15.69;60.05
19860;BME280;2395;50.738;7.122;2022-09-17T09:56:56;100932.63;;;15.53;60.17
19860;BME280;2395;50.738;7.122;2022-09-17T09:59:24;100932.06;;;15.31;60.78
19860;BME280;2395;50.738;7.122;2022-09-17T10:01:51;100933.00;;;15.45;60.39
19860;BME280;2395;50.738;7.122;2022-09-17T10:04:21;100940.63;;;15.48;59.64
19860;BME280;2395;50.738;7.122;2022-09-17T10:06:52;100932.78;;;15.50;59.85
19860;BME280;2395;50.738;7.122;2022-09-17T10:09:21;100927.63;;;15.65;59.44
19860;BME280;2395;50.738;7.122;2022-09-17T10:12:01;100926.50;;;15.39;59.40
19860;BME280;2395;50.738;7.122;2022-09-17T10:14:31;100928.47;;;15.50;60.59
19860;BME280;2395;50.738;7.122;2022-09-17T10:17:17;100931.47;;;15.26;60.02
19860;BME280;2395;50.738;7.122;2022-09-17T10:20:07;100923.81;;;15.23;60.68
19860;BME280;2395;50.738;7.122;2022-09-17T10:22:40;100927.22;;;15.57;59.51
19860;BME280;2395;50.738;7.122;2022-09-17T10:25:26;100925.41;;;15.75;58.57
19860;BME280;2395;50.738;7.122;2022-09-17T10:27:55;100923.84;;;16.03;58.65
19860;BME280;2395;50.738;7.122;2022-09-17T10:30:23;100917.50;;;16.24;58.21
19860;BME280;2395;50.738;7.122;2022-09-17T10:33:18;100909.19;;;16.64;57.04
19860;BME280;2395;50.738;7.122;2022-09-17T10:36:01;100926.69;;;16.45;54.81
19860;BME280;2395;50.738;7.122;2022-09-17T10:38:34;100915.53;;;15.81;55.65
19860;BME280;2395;50.738;7.122;2022-09-17T10:41:15;100922.50;;;15.96;55.84
19860;BME280;2395;50.738;7.122;2022-09-17T10:43:43;100909.78;;;15.76;56.22
19860;BME280;2395;50.738;7.122;2022-09-17T10:46:15;100910.97;;;16.02;55.19
19860;BME280;2395;50.738;7.122;2022-09-17T10:48:52;100918.44;;;16.38;54.59
19860;BME280;2395;50.738;7.122;2022-09-17T10:51:25;100901.47;;;16.78;53.56
19860;BME280;2395;50.738;7.122;2022-09-17T10:54:14;100907.34;;;16.66;52.65
19860;BME280;2395;50.738;7.122;2022-09-17T10:56:50;100899.78;;;16.77;52.89
19860;BME280;2395;50.738;7.122;2022-09-17T10:59:57;100906.06;;;16.73;53.41
19860;BME280;2395;50.738;7.122;2022-09-17T11:03:11;100902.22;;;16.04;56.17
19860;BME280;2395;50.738;7.122;2022-09-17T11:06:28;100916.97;;;15.87;58.47
19860;BME280;2395;50.738;7.122;2022-09-17T11:09:13;100896.38;;;15.38;61.09
19860;BME280;2395;50.738;7.122;2022-09-17T11:11:58;100902.94;;;15.75;62.16
19860;BME280;2395;50.738;7.122;2022-09-17T11:14:49;100893.63;;;16.19;60.18
19860;BME280;2395;50.738;7.122;2022-09-17T11:17:39;100882.91;;;16.70;58.70
19860;BME280;2395;50.738;7.122;2022-09-17T11:20:22;100884.09;;;16.94;58.10
19860;BME280;2395;50.738;7.122;2022-09-17T11:23:06;100905.84;;;16.91;57.15
19860;BME280;2395;50.738;7.122;2022-09-17T11:25:53;100888.50;;;16.02;59.12
19860;BME280;2395;50.738;7.122;2022-09-17T11:28:38;100889.41;;;16.47;58.11
19860;BME280;2395;50.738;7.122;2022-09-17T11:31:23;100879.56;;;16.38;58.89
19860;BME280;2395;50.738;7.122;2022-09-17T11:34:21;100889.44;;;16.32;57.72
19860;BME280;2395;50.738;7.122;2022-09-17T11:37:00;100898.16;;;16.60;57.53
19860;BME280;2395;50.738;7.122;2022-09-17T11:39:37;100900.25;;;16.54;56.05
19860;BME280;2395;50.738;7.122;2022-09-17T11:42:12;100890.22;;;16.63;53.52
19860;BME280;2395;50.738;7.122;2022-09-17T11:44:48;100884.50;;;16.72;52.85
19860;BME280;2395;50.738;7.122;2022-09-17T11:47:24;100885.63;;;17.25;52.58
19860;BME280;2395;50.738;7.122;2022-09-17T11:49:59;100883.94;;;17.24;52.00
19860;BME280;2395;50.738;7.122;2022-09-17T11:52:33;100867.47;;;17.53;52.07
19860;BME280;2395;50.738;7.122;2022-09-17T11:55:17;100880.88;;;17.18;50.94
19860;BME280;2395;50.738;7.122;2022-09-17T11:57:50;100871.69;;;17.13;52.50
19860;BME280;2395;50.738;7.122;2022-09-17T12:00:20;100868.78;;;17.46;52.32
19860;BME280;2395;50.738;7.122;2022-09-17T12:02:56;100865.06;;;17.64;51.80
19860;BME280;2395;50.738;7.122;2022-09-17T12:05:28;100884.63;;;16.85;52.50
19860;BME280;2395;50.738;7.122;2022-09-17T12:08:05;100884.16;;;16.49;53.83
19860;BME280;2395;50.738;7.122;2022-09-17T12:10:48;100895.59;;;15.99;55.46
19860;BME280;2395;50.738;7.122;2022-09-17T12:13:30;100903.28;;;15.37;63.58
19860;BME280;2395;50.738;7.122;2022-09-17T12:16:12;100922.38;;;14.50;71.00
19860;BME280;2395;50.738;7.122;2022-09-17T12:18:54;100914.88;;;14.27;73.47
19860;BME280;2395;50.738;7.122;2022-09-17T12:21:29;100907.97;;;14.09;73.91
19860;BME280;2395;50.738;7.122;2022-09-17T12:24:09;100904.44;;;14.12;72.65
19860;BME280;2395;50.738;7.122;2022-09-17T12:27:18;100901.28;;;14.93;71.64
19860;BME280;2395;50.738;7.122;2022-09-17T12:30:09;100889.94;;;15.92;68.32
19860;BME280;2395;50.738;7.122;2022-09-17T12:42:44;100888.75;;;16.13;64.71
19860;BME280;2395;50.738;7.122;2022-09-17T12:45:45;100880.41;;;15.77;65.08
19860;BME280;2395;50.738;7.122;2022-09-17T12:48:55;100882.47;;;15.55;64.23
19860;BME280;2395;50.738;7.122;2022-09-17T12:51:50;100893.22;;;15.48;64.90
19860;BME280;2395;50.738;7.122;2022-09-17T12:54:44;100903.38;;;15.19;64.56
19860;BME280;2395;50.738;7.122;2022-09-17T12:57:33;100897.03;;;14.92;65.80
19860;BME280;2395;50.738;7.122;2022-09-17T13:00:07;100899.56;;;15.58;64.85
19860;BME280;2395;50.738;7.122;2022-09-17T13:02:42;100893.69;;;16.18;63.13
19860;BME280;2395;50.738;7.122;2022-09-17T13:05:53;100894.56;;;16.63;60.58
19860;BME280;2395;50.738;7.122;2022-09-17T13:09:20;100901.53;;;16.76;60.71
19860;BME280;2395;50.738;7.122;2022-09-17T13:12:15;100883.03;;;16.53;61.85
19860;BME280;2395;50.738;7.122;2022-09-17T13:15:30;100875.22;;;17.12;59.73
19860;BME280;2395;50.738;7.122;2022-09-17T13:18:11;100871.28;;;16.91;60.59
19860;BME280;2395;50.738;7.122;2022-09-17T13:20:54;100857.19;;;16.37;61.77
19860;BME280;2395;50.738;7.122;2022-09-17T13:23:37;100852.44;;;17.58;58.41
19860;BME280;2395;50.738;7.122;2022-09-17T13:26:07;100851.47;;;18.13;56.84
19860;BME280;2395;50.738;7.122;2022-09-17T13:28:40;100838.19;;;17.65;55.70
19860;BME280;2395;50.738;7.122;2022-09-17T13:31:09;100851.78;;;18.09;54.67
19860;BME280;2395;50.738;7.122;2022-09-17T13:34:00;100847.91;;;18.55;54.00
19860;BME280;2395;50.738;7.122;2022-09-17T13:36:47;100844.63;;;17.86;54.91
19860;BME280;2395;50.738;7.122;2022-09-17T13:39:49;100839.41;;;18.90;53.40
19860;BME280;2395;50.738;7.122;2022-09-17T13:42:21;100838.16;;;18.71;50.53
19860;BME280;2395;50.738;7.122;2022-09-17T13:44:52;100851.28;;;18.82;51.96
19860;BME280;2395;50.738;7.122;2022-09-17T13:47:30;100848.38;;;17.95;52.88
19860;BME280;2395;50.738;7.122;2022-09-17T13:50:03;100854.19;;;18.65;50.96